Daytona Beach International Airport Daytona Beach US
ICAO: KDAB
IATA: DAB
Category: Medium
Scheduled Services: Yes

Elevation: 34 ft
TransAlt. 18000 ft.

Airport Communications:
APP:118.85
ATIS:120.05
CLNC DEL:119.3
DEP:123.9
GND:121.9
TWR:120.7
UNICOM:122.95

KDAB Zoom In..

If you have problems with the map follow the link
https://www.worldairports.se/pages/airport.php?
ICAO=KDAB

Runways:

(A) RW 07L length 10500 ft width 150 ft
ILS 109.70 / hdg 70

(B) RW 07R length 3195 ft width 100 ft
---- / hdg 70

(C) RW 16 length 6001 ft width 150 ft
---- / hdg 162

(D) RW 25L length 3195 ft width 100 ft
---- / hdg 250

(E) RW 25R length 10500 ft width 150 ft
ILS 109.70 / hdg 250

(F) RW 34 length 6001 ft width 150 ft
---- / hdg 342

Location; KDAB
Day. 18 / Time. 02.53 Zulu
* Altimeter: 30.43
* Temperature: 19° c. 66.2°f.
* Wind from: 070° Speed 16 kn.
Dewpoint: 14° c.
Visibility: 10 Statute Miles.
Clouds: Scattered 4600 ft.
Clouds: Scattered 25000 ft.

KDAB 180253Z 07016KT 10SM SCT046 SCT250 19/14 A3043 RMK AO2 SLP303 T01890139 51005


Wind From 070°
Speed 16 kn.

 
 
jpsmedia worldairports.se 2020   terms of use